Ventura — ZCDT2 — position and weather

sailwx.info

Track history (hours):
 
Tides and Currents Weather Stations Pressure Air Temp Water Temp Dewpoint Dewpoint Depression Visibility Wind Speed Wind Dir Waves Ship Positions

Ventura

Last reported at 2017-Aug-16 23:00 UTC. Time now 2017-Aug-17 02:07 UTC.
Position N 43°54' W 009°30'.

Length 289 m; draft 8.6 m.

Type: Passenger vessel. MMSI: 310562000.

Wind from 210 at 26 knots

Barometer 1020.4 mb
Air temperature 20.1 ° C
Visibility: greater than 5.4 NM
Dewpoint 18.8 ° C
Water temperature 19.0 ° C

Date/timePositionNaut miles runAvg speedWind from/ knotsBaromVisibWave heightAir tempDewpointWater temp
2017-Aug-16 23:00N 43°54' W 009°30'9118.2 210 / 261020.4 5.4 20.118.819.0
2017-Aug-16 18:00N 45°12' W 008°24'6421.2 230 / 261018.5 5.4 20.019.219.3
2017-Aug-16 15:00N 46°06' W 007°36'0 0.0 220 / 291017.6 2.2 15.915.718.9
2017-Aug-16 14:00N 46°06' W 007°36'8322.5 220 / 291017.6 2.2 15.915.718.9
2017-Aug-16 10:17N 47°17' W 006°33'1219.1
2017-Aug-16 09:40N 47°27' W 006°24'919.2
2017-Aug-16 09:12N 47°35' W 006°17'1119.1
2017-Aug-16 08:39N 47°44' W 006°09'419.1
2017-Aug-16 08:28N 47°47' W 006°06'1019.1
2017-Aug-16 07:56N 47°55' W 005°58'919.3
2017-Aug-16 07:30N 48°03' W 005°51'1122.1
2017-Aug-16 07:00N 48°12' W 005°42'1151.2 190 / 211018.310.8 17.014.416.8
2017-Aug-16 06:59N 48°11' W 005°43'1019.2
2017-Aug-16 06:27N 48°20' W 005°35'919.5
2017-Aug-16 06:00N 48°27' W 005°28'1020.0
2017-Aug-16 05:30N 48°35' W 005°19'1019.8
2017-Aug-16 05:00N 48°43' W 005°10'1020.2
2017-Aug-16 04:30N 48°48' W 004°57'1020.1
2017-Aug-16 04:00N 48°56' W 004°47'1020.2
2017-Aug-16 03:30N 49°03' W 004°35'1319.1
2017-Aug-16 02:50N 49°11' W 004°20'619.8
2017-Aug-16 02:30N 49°14' W 004°12'916.9
2017-Aug-16 02:00N 49°18' W 004°00'532.8 180 / 131019.810.8 15.2 6.416.4
2017-Aug-16 01:51N 49°22' W 003°57'1119.1
2017-Aug-16 01:17N 49°30' W 003°46'518.5
2017-Aug-16 01:00N 49°34' W 003°40'918.5
2017-Aug-16 00:30N 49°39' W 003°28'918.2
2017-Aug-16 00:00N 49°43' W 003°16'918.3
2017-Aug-15 23:30N 49°51' W 003°09'918.3
2017-Aug-15 23:00N 49°58' W 002°59'918.4
2017-Aug-15 22:30N 49°59' W 002°45'918.8
2017-Aug-15 22:00N 50°02' W 002°31'14871.0
2017-Aug-15 22:00N 49°54' W 002°48'2347.7 260 / 161019.910.8 16.213.716.4
2017-Aug-15 21:30N 50°06' W 002°17'1019.9
2017-Aug-15 21:00N 50°11' W 002°04'1020.3
2017-Aug-15 20:30N 50°16' W 001°50'1020.4
2017-Aug-15 20:01N 50°22' W 001°38'1020.1
2017-Aug-15 19:30N 50°26' W 001°23'1020.5
2017-Aug-15 19:01N 50°30' W 001°08'918.8
2017-Aug-15 18:30N 50°37' W 000°59'611.2
2017-Aug-15 18:00N 50°43' W 001°00'715.0
2017-Aug-15 17:30N 50°46' W 001°11'5 9.5
2017-Aug-15 17:01N 50°49' W 001°17'510.3
2017-Aug-15 16:31N 50°52' W 001°23'3 4.7
2017-Aug-15 15:58N 50°54' W 001°26'0 0.0
2017-Aug-15 15:25N 50°54' W 001°26'0 0.0
2017-Aug-15 14:58N 50°54' W 001°26'0 0.0
2017-Aug-15 14:28N 50°54' W 001°26'0 0.0
2017-Aug-15 13:58N 50°54' W 001°26'0 0.0
2017-Aug-15 13:28N 50°54' W 001°26'0 0.0
2017-Aug-15 12:58N 50°54' W 001°26'0 0.0
2017-Aug-15 12:28N 50°54' W 001°26'0 0.0
2017-Aug-15 11:55N 50°54' W 001°26'0 0.0
2017-Aug-15 11:28N 50°54' W 001°26'0 0.0
2017-Aug-15 10:58N 50°54' W 001°26'0 0.0
2017-Aug-15 10:28N 50°54' W 001°26'0 0.0
2017-Aug-15 09:58N 50°54' W 001°26'0 0.0
2017-Aug-15 09:28N 50°54' W 001°26'0 0.0
2017-Aug-15 08:58N 50°54' W 001°26'0 0.0
2017-Aug-15 08:28N 50°54' W 001°26'0 0.0
2017-Aug-15 07:58N 50°54' W 001°26'0 0.0
2017-Aug-15 07:28N 50°54' W 001°26'0 0.0
2017-Aug-15 06:58N 50°54' W 001°26'0 0.0
2017-Aug-15 06:28N 50°54' W 001°26'0 0.0
2017-Aug-15 05:58N 50°54' W 001°26'0 0.0
2017-Aug-15 05:31N 50°54' W 001°26'0 0.1
2017-Aug-15 05:00N 50°54' W 001°26'3 6.4
2017-Aug-15 04:31N 50°52' W 001°22'4 8.1
2017-Aug-15 04:00N 50°49' W 001°18'4 7.9
2017-Aug-15 03:31N 50°46' W 001°14'917.4
2017-Aug-15 03:00N 50°43' W 001°01'612.2
2017-Aug-15 02:30N 50°39' W 000°54'816.3
2017-Aug-15 02:01N 50°37' W 000°42'917.9
2017-Aug-15 01:31N 50°35' W 000°28'917.7
2017-Aug-15 01:00N 50°34' W 000°14'917.8
2017-Aug-15 00:31N 50°32' W 000°00'917.7
2017-Aug-15 00:01N 50°34' E 000°13'918.2
2017-Aug-14 23:30N 50°37' E 000°27'1019.1
2017-Aug-14 23:00N 50°41' E 000°41'1019.6
2017-Aug-14 22:30N 50°45' E 000°55'1019.9
2017-Aug-14 22:00N 50°52' E 001°06'1019.9
2017-Aug-14 21:31N 50°59' E 001°18'1019.4
2017-Aug-14 21:00N 51°05' E 001°30'918.4
2017-Aug-14 20:31N 51°11' E 001°41'917.9
2017-Aug-14 20:00N 51°18' E 001°50'917.4
2017-Aug-14 19:30N 51°25' E 001°58'816.8
2017-Aug-14 19:00N 51°22' E 002°10'816.3
2017-Aug-14 18:30N 51°21' E 002°23'816.7
2017-Aug-14 18:01N 51°23' E 002°37'714.0
2017-Aug-14 17:30N 51°22' E 002°48'815.1
2017-Aug-14 17:00N 51°24' E 002°60'713.6
2017-Aug-14 16:30N 51°23' E 003°10'2 4.6
2017-Aug-14 15:58N 51°20' E 003°12'0 0.0
2017-Aug-14 15:28N 51°20' E 003°12'0 0.0
2017-Aug-14 14:58N 51°20' E 003°12'0 0.0
2017-Aug-14 14:28N 51°20' E 003°12'0 0.0
2017-Aug-14 13:58N 51°20' E 003°12'0 0.0
2017-Aug-14 13:25N 51°20' E 003°12'0 0.0
2017-Aug-14 12:58N 51°20' E 003°12'0 0.0
2017-Aug-14 12:28N 51°20' E 003°12'0 0.0
2017-Aug-14 11:58N 51°20' E 003°12'0 0.0
2017-Aug-14 11:28N 51°20' E 003°12'0 0.0
2017-Aug-14 10:58N 51°20' E 003°12'0 0.0
2017-Aug-14 10:28N 51°20' E 003°12'0 0.0
2017-Aug-14 09:58N 51°20' E 003°12'0 0.0
2017-Aug-14 09:28N 51°20' E 003°12'0 0.0
2017-Aug-14 08:58N 51°20' E 003°12'0 0.0
2017-Aug-14 08:25N 51°20' E 003°12'0 0.0
2017-Aug-14 07:58N 51°20' E 003°12'0 0.0
2017-Aug-14 07:29N 51°20' E 003°12'0 0.0
2017-Aug-14 06:58N 51°20' E 003°12'0 0.0
2017-Aug-14 06:28N 51°20' E 003°12'0 0.0
2017-Aug-14 05:58N 51°20' E 003°12'0 0.0
2017-Aug-14 05:28N 51°20' E 003°12'0 0.0
2017-Aug-14 05:01N 51°20' E 003°12'1 2.9
2017-Aug-14 04:31N 51°22' E 003°11'713.3
2017-Aug-14 04:01N 51°24' E 003°01'816.7
2017-Aug-14 03:30N 51°22' E 002°49'612.4
2017-Aug-14 03:01N 51°22' E 002°39'612.8
2017-Aug-14 02:31N 51°22' E 002°28'612.8
2017-Aug-14 02:00N 51°19' E 002°19'612.1
2017-Aug-14 01:31N 51°16' E 002°11'611.4
2017-Aug-14 01:00N 51°13' E 002°03'510.9
2017-Aug-14 00:30N 51°10' E 001°56'510.5
2017-Aug-14 00:00N 51°07' E 001°48'510.1
2017-Aug-13 23:31N 51°04' E 001°42'5 9.7
2017-Aug-13 23:00N 51°01' E 001°37'611.2
2017-Aug-13 22:31N 50°57' E 001°30'510.0
2017-Aug-13 22:01N 50°53' E 001°25'510.5
2017-Aug-13 21:31N 50°48' E 001°23'510.7
2017-Aug-13 21:01N 50°43' E 001°21'510.8
2017-Aug-13 20:30N 50°39' E 001°16'711.0
2017-Aug-13 19:53N 50°34' E 001°08'410.1
2017-Aug-13 19:31N 50°32' E 001°03'611.5
2017-Aug-13 18:58N 50°29' E 000°55'711.5
2017-Aug-13 18:22N 50°26' E 000°45'411.5
2017-Aug-13 18:00N 50°24' E 000°39'611.5
2017-Aug-13 17:31N 50°22' E 000°31'611.4
2017-Aug-13 17:01N 50°18' E 000°24'611.8
2017-Aug-13 16:30N 50°13' E 000°18'611.9
2017-Aug-13 16:00N 50°08' E 000°13'3 5.3
2017-Aug-13 15:29N 50°06' E 000°11'0 0.0
2017-Aug-13 14:59N 50°06' E 000°11'0 0.0
2017-Aug-13 14:26N 50°06' E 000°11'0 0.0
2017-Aug-13 13:59N 50°06' E 000°11'0 0.0
2017-Aug-13 13:18N 50°06' E 000°11'0 0.0
2017-Aug-13 12:59N 50°06' E 000°11'0 0.0
2017-Aug-13 12:23N 50°06' E 000°11'0 0.0
2017-Aug-13 11:53N 50°06' E 000°11'0 0.1
2017-Aug-13 10:23N 50°06' E 000°10'0 0.0
2017-Aug-13 08:23N 50°06' E 000°10'13 7.1
2017-Aug-13 06:32N 50°05' W 000°10'010.9
2017-Aug-13 06:30N 50°05' W 000°11'2110.7
2017-Aug-13 04:30N 50°04' W 000°44'611.7
2017-Aug-13 04:00N 50°04' W 000°53'612.0
2017-Aug-13 03:29N 50°03' W 001°03'612.2
2017-Aug-13 03:00N 50°03' W 001°12'612.4
2017-Aug-13 02:31N 50°02' W 001°21'713.0
2017-Aug-13 02:00N 50°02' W 001°31'713.4
2017-Aug-13 01:30N 50°02' W 001°42'612.6
2017-Aug-13 01:00N 50°01' W 001°52'613.0
2017-Aug-13 00:30N 50°00' W 002°02'713.6
2017-Aug-13 00:00N 49°59' W 002°12'914.3
2017-Aug-12 23:22N 49°56' W 002°26'514.6
2017-Aug-12 23:00N 49°55' W 002°33'815.2
2017-Aug-12 22:31N 49°52' W 002°45'815.6
2017-Aug-12 22:01N 49°50' W 002°56'812.5
2017-Aug-12 21:23N 49°42' W 002°59'513.5
2017-Aug-12 21:00N 49°37' W 002°58'713.2
2017-Aug-12 20:30N 49°30' W 002°57'611.6
2017-Aug-12 19:57N 49°24' W 002°53'28 1.7
2017-Aug-12 03:49N 49°29' W 002°12'310.3
2017-Aug-12 03:30N 49°32' W 002°10'510.9
2017-Aug-12 03:01N 49°37' W 002°07'713.7
2017-Aug-12 02:29N 49°44' W 002°05'612.6
2017-Aug-12 02:01N 49°50' W 002°05'612.4
2017-Aug-12 01:30N 49°57' W 002°05'612.3
2017-Aug-12 01:00N 50°03' W 002°05'611.7
2017-Aug-12 00:30N 50°08' W 002°04'612.5
2017-Aug-12 00:00N 50°15' W 002°04'710.0
2017-Aug-11 23:21N 50°19' W 001°56'3 9.9
2017-Aug-11 23:00N 50°20' W 001°51'5 9.4
2017-Aug-11 22:26N 50°22' W 001°43'4 9.3
2017-Aug-11 22:00N 50°23' W 001°37'4 8.6
2017-Aug-11 21:30N 50°25' W 001°31'4 7.8
2017-Aug-11 21:00N 50°25' W 001°25'4 8.4
2017-Aug-11 20:30N 50°27' W 001°19'4 8.9
2017-Aug-11 20:00N 50°29' W 001°12'5 9.6
2017-Aug-11 19:30N 50°31' W 001°05'5 9.0
2017-Aug-11 19:00N 50°34' W 000°60'510.8
2017-Aug-11 18:30N 50°39' W 000°59'4 8.1
2017-Aug-11 18:00N 50°43' W 001°00'815.6
2017-Aug-11 17:30N 50°46' W 001°12'5 9.7
2017-Aug-11 17:00N 50°49' W 001°18'510.6
2017-Aug-11 16:30N 50°53' W 001°24'1 1.5
2017-Aug-11 16:00N 50°53' W 001°24'0 0.0
2017-Aug-11 15:30N 50°53' W 001°24'0 0.0
2017-Aug-11 15:00N 50°53' W 001°24'0 0.0
2017-Aug-11 14:00N 50°53' W 001°24'0 0.0
2017-Aug-11 13:30N 50°53' W 001°24'0 0.0
2017-Aug-11 13:00N 50°53' W 001°24'0 0.0
2017-Aug-11 12:30N 50°53' W 001°24'0 0.0
2017-Aug-11 12:00N 50°53' W 001°24'0 0.0
2017-Aug-11 11:30N 50°53' W 001°24'0 0.0
2017-Aug-11 11:01N 50°53' W 001°24'0 0.0
2017-Aug-11 10:31N 50°53' W 001°24'0 0.0
2017-Aug-11 10:00N 50°53' W 001°24'0 0.0
2017-Aug-11 09:30N 50°53' W 001°24'0 0.0
2017-Aug-11 09:00N 50°53' W 001°24'0 0.0
2017-Aug-11 08:30N 50°53' W 001°24'0 0.0
2017-Aug-11 08:00N 50°53' W 001°24'0 0.0
2017-Aug-11 07:30N 50°53' W 001°24'0 0.0
2017-Aug-11 07:00N 50°53' W 001°24'0 0.0
2017-Aug-11 06:30N 50°53' W 001°24'0 0.0
2017-Aug-11 06:00N 50°53' W 001°24'0 0.0
2017-Aug-11 05:30N 50°53' W 001°24'0 0.5
2017-Aug-11 05:00N 50°53' W 001°24'4 8.4
2017-Aug-11 04:30N 50°50' W 001°19'4 8.2
2017-Aug-11 04:00N 50°47' W 001°17'917.1
2017-Aug-11 03:30N 50°44' W 001°04'612.0
2017-Aug-11 03:00N 50°39' W 000°58'510.7
2017-Aug-11 02:30N 50°34' W 001°01'611.7
2017-Aug-11 02:01N 50°31' W 001°08'612.6
2017-Aug-11 01:30N 50°28' W 001°17'713.6
2017-Aug-11 01:01N 50°25' W 001°27'714.5
2017-Aug-11 00:30N 50°22' W 001°37'815.3
2017-Aug-11 00:01N 50°21' W 001°49'816.0
2017-Aug-10 23:30N 50°18' W 002°01'714.4
2017-Aug-10 23:00N 50°13' W 002°09'1013.9
2017-Aug-10 22:18N 50°04' W 002°10'413.6
2017-Aug-10 21:59N 49°59' W 002°09'612.8
2017-Aug-10 21:31N 49°54' W 002°06'612.7
2017-Aug-10 21:00N 49°47' W 002°03'917.9
2017-Aug-10 20:31N 49°39' W 002°07'815.7
2017-Aug-10 19:59N 49°31' W 002°10'714.6
2017-Aug-10 19:31N 49°24' W 002°14'714.6
2017-Aug-10 19:00N 49°23' W 002°25'6 9.9
2017-Aug-10 18:26N 49°27' W 002°30'0 0.1
2017-Aug-10 17:11N 49°27' W 002°30'0 0.0
2017-Aug-10 16:53N 49°27' W 002°30'0 0.0
2017-Aug-10 16:29N 49°27' W 002°30'0 0.0
2017-Aug-10 15:53N 49°27' W 002°30'30 2.6
2017-Aug-10 04:04N 49°13' W 003°11'120.7
2017-Aug-10 04:00N 49°13' W 003°13'4619.8
2017-Aug-10 01:41N 48°57' W 004°19'318.7
2017-Aug-10 01:30N 48°56' W 004°24'918.3
2017-Aug-10 01:00N 48°52' W 004°37'918.2
2017-Aug-10 00:30N 48°49' W 004°50'917.7
2017-Aug-10 00:00N 48°45' W 005°02'816.5
2017-Aug-09 23:30N 48°40' W 005°12'816.0
2017-Aug-09 23:00N 48°34' W 005°19'4242.7
2017-Aug-09 23:00N 48°30' W 005°18'714.7 350 / 321024.710.8 16.311.916.4
2017-Aug-09 22:30N 48°27' W 005°28'1017.6
2017-Aug-09 21:57N 48°19' W 005°36'2217.0
2017-Aug-09 20:38N 47°59' W 005°52'19117.9
2017-Aug-09 10:00N 45°12' W 008°06'336 9.8 330 / 291023.110.8 18.412.118.9
2017-Aug-07 23:31N 39°43' W 009°41'215.6
2017-Aug-07 23:24N 39°42' W 009°43'615.5
2017-Aug-07 23:00N 39°36' W 009°44'815.7
2017-Aug-07 22:29N 39°27' W 009°44'715.3
2017-Aug-07 22:00N 39°20' W 009°44'815.3
2017-Aug-07 21:30N 39°13' W 009°44'815.4
2017-Aug-07 21:00N 39°05' W 009°43'815.0
2017-Aug-07 20:30N 38°57' W 009°43'714.6
2017-Aug-07 20:00N 38°50' W 009°43'714.1
2017-Aug-07 19:30N 38°43' W 009°43'612.7
2017-Aug-07 19:00N 38°39' W 009°37'715.0
2017-Aug-07 18:31N 38°37' W 009°28'714.4
2017-Aug-07 18:00N 38°39' W 009°20'714.2
2017-Aug-07 17:30N 38°41' W 009°11'3 5.5
2017-Aug-07 16:57N 38°43' W 009°07'0 0.0
2017-Aug-07 16:27N 38°43' W 009°07'0 0.0
2017-Aug-07 15:57N 38°43' W 009°07'0 0.0
2017-Aug-07 15:21N 38°43' W 009°07'0 0.0
2017-Aug-07 14:51N 38°43' W 009°07'0 0.0
2017-Aug-07 14:27N 38°43' W 009°07'0 0.0
2017-Aug-07 13:57N 38°43' W 009°07'0 0.0
2017-Aug-07 13:27N 38°43' W 009°07'0 0.0
2017-Aug-07 12:57N 38°43' W 009°07'0 0.0
2017-Aug-07 12:27N 38°43' W 009°07'0 0.0
2017-Aug-07 11:57N 38°43' W 009°07'0 0.0
2017-Aug-07 11:27N 38°43' W 009°07'0 0.0
2017-Aug-07 10:57N 38°43' W 009°07'0 0.0
2017-Aug-07 10:27N 38°43' W 009°07'0 0.0
2017-Aug-07 09:57N 38°43' W 009°07'0 0.0
2017-Aug-07 09:27N 38°43' W 009°07'0 0.0
2017-Aug-07 08:57N 38°43' W 009°07'0 0.0
2017-Aug-07 08:27N 38°43' W 009°07'0 0.0
2017-Aug-07 07:57N 38°43' W 009°07'0 0.0
2017-Aug-07 07:27N 38°43' W 009°07'0 0.0
2017-Aug-07 06:57N 38°43' W 009°07'0 0.0
2017-Aug-07 06:27N 38°43' W 009°07'0 0.6
2017-Aug-07 06:00N 38°42' W 009°08'5 9.4
2017-Aug-07 05:30N 38°41' W 009°13'510.0
2017-Aug-07 05:00N 38°39' W 009°19'714.5
2017-Aug-07 04:30N 38°35' W 009°27'816.2
2017-Aug-07 04:00N 38°37' W 009°37'815.7
2017-Aug-07 03:31N 38°44' W 009°42'918.0
2017-Aug-07 03:01N 38°53' W 009°42'918.0
2017-Aug-07 02:31N 39°02' W 009°43'917.8
2017-Aug-07 02:00N 39°11' W 009°45'917.9
2017-Aug-07 01:31N 39°20' W 009°46'918.4
2017-Aug-07 01:01N 39°29' W 009°47'918.2
2017-Aug-07 00:30N 39°38' W 009°45'918.0
2017-Aug-07 00:00N 39°47' W 009°44'918.0
2017-Aug-06 23:30N 39°56' W 009°41'918.1
2017-Aug-06 23:00N 40°05' W 009°39'  
Track history (hours):
 
Tides and Currents Weather Stations Pressure Air Temp Water Temp Dewpoint Dewpoint Depression Visibility Wind Speed Wind Dir Waves Ship Positions

Ventura

Last reported at 2017-Aug-16 23:00 UTC. Time now 2017-Aug-17 02:07 UTC.
Position N 43°54' W 009°30'.

Length 289 m; draft 8.6 m.

Type: Passenger vessel. MMSI: 310562000.

Wind from 210 at 26 knots

Barometer 1020.4 mb
Air temperature 20.1 ° C
Visibility: greater than 5.4 NM
Dewpoint 18.8 ° C
Water temperature 19.0 ° C

Date/timePositionNaut miles runAvg speedWind from/ knotsBaromVisibWave heightAir tempDewpointWater temp
2017-Aug-16 23:00N 43°54' W 009°30'9118.2 210 / 261020.4 5.4 20.118.819.0
2017-Aug-16 18:00N 45°12' W 008°24'6421.2 230 / 261018.5 5.4 20.019.219.3
2017-Aug-16 15:00N 46°06' W 007°36'0 0.0 220 / 291017.6 2.2 15.915.718.9
2017-Aug-16 14:00N 46°06' W 007°36'8322.5 220 / 291017.6 2.2 15.915.718.9
2017-Aug-16 10:17N 47°17' W 006°33'1219.1
2017-Aug-16 09:40N 47°27' W 006°24'919.2
2017-Aug-16 09:12N 47°35' W 006°17'1119.1
2017-Aug-16 08:39N 47°44' W 006°09'419.1
2017-Aug-16 08:28N 47°47' W 006°06'1019.1
2017-Aug-16 07:56N 47°55' W 005°58'919.3
2017-Aug-16 07:30N 48°03' W 005°51'1122.1
2017-Aug-16 07:00N 48°12' W 005°42'1151.2 190 / 211018.310.8 17.014.416.8
2017-Aug-16 06:59N 48°11' W 005°43'1019.2
2017-Aug-16 06:27N 48°20' W 005°35'919.5
2017-Aug-16 06:00N 48°27' W 005°28'1020.0
2017-Aug-16 05:30N 48°35' W 005°19'1019.8
2017-Aug-16 05:00N 48°43' W 005°10'1020.2
2017-Aug-16 04:30N 48°48' W 004°57'1020.1
2017-Aug-16 04:00N 48°56' W 004°47'1020.2
2017-Aug-16 03:30N 49°03' W 004°35'1319.1
2017-Aug-16 02:50N 49°11' W 004°20'619.8
2017-Aug-16 02:30N 49°14' W 004°12'916.9
2017-Aug-16 02:00N 49°18' W 004°00'532.8 180 / 131019.810.8 15.2 6.416.4
2017-Aug-16 01:51N 49°22' W 003°57'1119.1
2017-Aug-16 01:17N 49°30' W 003°46'518.5
2017-Aug-16 01:00N 49°34' W 003°40'918.5
2017-Aug-16 00:30N 49°39' W 003°28'918.2
2017-Aug-16 00:00N 49°43' W 003°16'918.3
2017-Aug-15 23:30N 49°51' W 003°09'918.3
2017-Aug-15 23:00N 49°58' W 002°59'918.4
2017-Aug-15 22:30N 49°59' W 002°45'918.8
2017-Aug-15 22:00N 50°02' W 002°31'14871.0
2017-Aug-15 22:00N 49°54' W 002°48'2347.7 260 / 161019.910.8 16.213.716.4
2017-Aug-15 21:30N 50°06' W 002°17'1019.9
2017-Aug-15 21:00N 50°11' W 002°04'1020.3
2017-Aug-15 20:30N 50°16' W 001°50'1020.4
2017-Aug-15 20:01N 50°22' W 001°38'1020.1
2017-Aug-15 19:30N 50°26' W 001°23'1020.5
2017-Aug-15 19:01N 50°30' W 001°08'918.8
2017-Aug-15 18:30N 50°37' W 000°59'611.2
2017-Aug-15 18:00N 50°43' W 001°00'715.0
2017-Aug-15 17:30N 50°46' W 001°11'5 9.5
2017-Aug-15 17:01N 50°49' W 001°17'510.3
2017-Aug-15 16:31N 50°52' W 001°23'3 4.7
2017-Aug-15 15:58N 50°54' W 001°26'0 0.0
2017-Aug-15 15:25N 50°54' W 001°26'0 0.0
2017-Aug-15 14:58N 50°54' W 001°26'0 0.0
2017-Aug-15 14:28N 50°54' W 001°26'0 0.0
2017-Aug-15 13:58N 50°54' W 001°26'0 0.0
2017-Aug-15 13:28N 50°54' W 001°26'0 0.0
2017-Aug-15 12:58N 50°54' W 001°26'0 0.0
2017-Aug-15 12:28N 50°54' W 001°26'0 0.0
2017-Aug-15 11:55N 50°54' W 001°26'0 0.0
2017-Aug-15 11:28N 50°54' W 001°26'0 0.0
2017-Aug-15 10:58N 50°54' W 001°26'0 0.0
2017-Aug-15 10:28N 50°54' W 001°26'0 0.0
2017-Aug-15 09:58N 50°54' W 001°26'0 0.0
2017-Aug-15 09:28N 50°54' W 001°26'0 0.0
2017-Aug-15 08:58N 50°54' W 001°26'0 0.0
2017-Aug-15 08:28N 50°54' W 001°26'0 0.0
2017-Aug-15 07:58N 50°54' W 001°26'0 0.0
2017-Aug-15 07:28N 50°54' W 001°26'0 0.0
2017-Aug-15 06:58N 50°54' W 001°26'0 0.0
2017-Aug-15 06:28N 50°54' W 001°26'0 0.0
2017-Aug-15 05:58N 50°54' W 001°26'0 0.0
2017-Aug-15 05:31N 50°54' W 001°26'0 0.1
2017-Aug-15 05:00N 50°54' W 001°26'3 6.4
2017-Aug-15 04:31N 50°52' W 001°22'4 8.1
2017-Aug-15 04:00N 50°49' W 001°18'4 7.9
2017-Aug-15 03:31N 50°46' W 001°14'917.4
2017-Aug-15 03:00N 50°43' W 001°01'612.2
2017-Aug-15 02:30N 50°39' W 000°54'816.3
2017-Aug-15 02:01N 50°37' W 000°42'917.9
2017-Aug-15 01:31N 50°35' W 000°28'917.7
2017-Aug-15 01:00N 50°34' W 000°14'917.8
2017-Aug-15 00:31N 50°32' W 000°00'917.7
2017-Aug-15 00:01N 50°34' E 000°13'918.2
2017-Aug-14 23:30N 50°37' E 000°27'1019.1
2017-Aug-14 23:00N 50°41' E 000°41'1019.6
2017-Aug-14 22:30N 50°45' E 000°55'1019.9
2017-Aug-14 22:00N 50°52' E 001°06'1019.9
2017-Aug-14 21:31N 50°59' E 001°18'1019.4
2017-Aug-14 21:00N 51°05' E 001°30'918.4
2017-Aug-14 20:31N 51°11' E 001°41'917.9
2017-Aug-14 20:00N 51°18' E 001°50'917.4
2017-Aug-14 19:30N 51°25' E 001°58'816.8
2017-Aug-14 19:00N 51°22' E 002°10'816.3
2017-Aug-14 18:30N 51°21' E 002°23'816.7
2017-Aug-14 18:01N 51°23' E 002°37'714.0
2017-Aug-14 17:30N 51°22' E 002°48'815.1
2017-Aug-14 17:00N 51°24' E 002°60'713.6
2017-Aug-14 16:30N 51°23' E 003°10'2 4.6
2017-Aug-14 15:58N 51°20' E 003°12'0 0.0
2017-Aug-14 15:28N 51°20' E 003°12'0 0.0
2017-Aug-14 14:58N 51°20' E 003°12'0 0.0
2017-Aug-14 14:28N 51°20' E 003°12'0 0.0
2017-Aug-14 13:58N 51°20' E 003°12'0 0.0
2017-Aug-14 13:25N 51°20' E 003°12'0 0.0
2017-Aug-14 12:58N 51°20' E 003°12'0 0.0
2017-Aug-14 12:28N 51°20' E 003°12'0 0.0
2017-Aug-14 11:58N 51°20' E 003°12'0 0.0
2017-Aug-14 11:28N 51°20' E 003°12'0 0.0
2017-Aug-14 10:58N 51°20' E 003°12'0 0.0
2017-Aug-14 10:28N 51°20' E 003°12'0 0.0
2017-Aug-14 09:58N 51°20' E 003°12'0 0.0
2017-Aug-14 09:28N 51°20' E 003°12'0 0.0
2017-Aug-14 08:58N 51°20' E 003°12'0 0.0
2017-Aug-14 08:25N 51°20' E 003°12'0 0.0
2017-Aug-14 07:58N 51°20' E 003°12'0 0.0
2017-Aug-14 07:29N 51°20' E 003°12'0 0.0
2017-Aug-14 06:58N 51°20' E 003°12'0 0.0
2017-Aug-14 06:28N 51°20' E 003°12'0 0.0
2017-Aug-14 05:58N 51°20' E 003°12'0 0.0
2017-Aug-14 05:28N 51°20' E 003°12'0 0.0
2017-Aug-14 05:01N 51°20' E 003°12'1 2.9
2017-Aug-14 04:31N 51°22' E 003°11'713.3
2017-Aug-14 04:01N 51°24' E 003°01'816.7
2017-Aug-14 03:30N 51°22' E 002°49'612.4
2017-Aug-14 03:01N 51°22' E 002°39'612.8
2017-Aug-14 02:31N 51°22' E 002°28'612.8
2017-Aug-14 02:00N 51°19' E 002°19'612.1
2017-Aug-14 01:31N 51°16' E 002°11'611.4
2017-Aug-14 01:00N 51°13' E 002°03'510.9
2017-Aug-14 00:30N 51°10' E 001°56'510.5
2017-Aug-14 00:00N 51°07' E 001°48'510.1
2017-Aug-13 23:31N 51°04' E 001°42'5 9.7
2017-Aug-13 23:00N 51°01' E 001°37'611.2
2017-Aug-13 22:31N 50°57' E 001°30'510.0
2017-Aug-13 22:01N 50°53' E 001°25'510.5
2017-Aug-13 21:31N 50°48' E 001°23'510.7
2017-Aug-13 21:01N 50°43' E 001°21'510.8
2017-Aug-13 20:30N 50°39' E 001°16'711.0
2017-Aug-13 19:53N 50°34' E 001°08'410.1
2017-Aug-13 19:31N 50°32' E 001°03'611.5
2017-Aug-13 18:58N 50°29' E 000°55'711.5
2017-Aug-13 18:22N 50°26' E 000°45'411.5
2017-Aug-13 18:00N 50°24' E 000°39'611.5
2017-Aug-13 17:31N 50°22' E 000°31'611.4
2017-Aug-13 17:01N 50°18' E 000°24'611.8
2017-Aug-13 16:30N 50°13' E 000°18'611.9
2017-Aug-13 16:00N 50°08' E 000°13'3 5.3
2017-Aug-13 15:29N 50°06' E 000°11'0 0.0
2017-Aug-13 14:59N 50°06' E 000°11'0 0.0
2017-Aug-13 14:26N 50°06' E 000°11'0 0.0
2017-Aug-13 13:59N 50°06' E 000°11'0 0.0
2017-Aug-13 13:18N 50°06' E 000°11'0 0.0
2017-Aug-13 12:59N 50°06' E 000°11'0 0.0
2017-Aug-13 12:23N 50°06' E 000°11'0 0.0
2017-Aug-13 11:53N 50°06' E 000°11'0 0.1
2017-Aug-13 10:23N 50°06' E 000°10'0 0.0
2017-Aug-13 08:23N 50°06' E 000°10'13 7.1
2017-Aug-13 06:32N 50°05' W 000°10'010.9
2017-Aug-13 06:30N 50°05' W 000°11'2110.7
2017-Aug-13 04:30N 50°04' W 000°44'611.7
2017-Aug-13 04:00N 50°04' W 000°53'612.0
2017-Aug-13 03:29N 50°03' W 001°03'612.2
2017-Aug-13 03:00N 50°03' W 001°12'612.4
2017-Aug-13 02:31N 50°02' W 001°21'713.0
2017-Aug-13 02:00N 50°02' W 001°31'713.4
2017-Aug-13 01:30N 50°02' W 001°42'612.6
2017-Aug-13 01:00N 50°01' W 001°52'613.0
2017-Aug-13 00:30N 50°00' W 002°02'713.6
2017-Aug-13 00:00N 49°59' W 002°12'914.3
2017-Aug-12 23:22N 49°56' W 002°26'514.6
2017-Aug-12 23:00N 49°55' W 002°33'815.2
2017-Aug-12 22:31N 49°52' W 002°45'815.6
2017-Aug-12 22:01N 49°50' W 002°56'812.5
2017-Aug-12 21:23N 49°42' W 002°59'513.5
2017-Aug-12 21:00N 49°37' W 002°58'713.2
2017-Aug-12 20:30N 49°30' W 002°57'611.6
2017-Aug-12 19:57N 49°24' W 002°53'28 1.7
2017-Aug-12 03:49N 49°29' W 002°12'310.3
2017-Aug-12 03:30N 49°32' W 002°10'510.9
2017-Aug-12 03:01N 49°37' W 002°07'713.7
2017-Aug-12 02:29N 49°44' W 002°05'612.6
2017-Aug-12 02:01N 49°50' W 002°05'612.4
2017-Aug-12 01:30N 49°57' W 002°05'612.3
2017-Aug-12 01:00N 50°03' W 002°05'611.7
2017-Aug-12 00:30N 50°08' W 002°04'612.5
2017-Aug-12 00:00N 50°15' W 002°04'710.0
2017-Aug-11 23:21N 50°19' W 001°56'3 9.9
2017-Aug-11 23:00N 50°20' W 001°51'5 9.4
2017-Aug-11 22:26N 50°22' W 001°43'4 9.3
2017-Aug-11 22:00N 50°23' W 001°37'4 8.6
2017-Aug-11 21:30N 50°25' W 001°31'4 7.8
2017-Aug-11 21:00N 50°25' W 001°25'4 8.4
2017-Aug-11 20:30N 50°27' W 001°19'4 8.9
2017-Aug-11 20:00N 50°29' W 001°12'5 9.6
2017-Aug-11 19:30N 50°31' W 001°05'5 9.0
2017-Aug-11 19:00N 50°34' W 000°60'510.8
2017-Aug-11 18:30N 50°39' W 000°59'4 8.1
2017-Aug-11 18:00N 50°43' W 001°00'815.6
2017-Aug-11 17:30N 50°46' W 001°12'5 9.7
2017-Aug-11 17:00N 50°49' W 001°18'510.6
2017-Aug-11 16:30N 50°53' W 001°24'1 1.5
2017-Aug-11 16:00N 50°53' W 001°24'0 0.0
2017-Aug-11 15:30N 50°53' W 001°24'0 0.0
2017-Aug-11 15:00N 50°53' W 001°24'0 0.0
2017-Aug-11 14:00N 50°53' W 001°24'0 0.0
2017-Aug-11 13:30N 50°53' W 001°24'0 0.0
2017-Aug-11 13:00N 50°53' W 001°24'0 0.0
2017-Aug-11 12:30N 50°53' W 001°24'0 0.0
2017-Aug-11 12:00N 50°53' W 001°24'0 0.0
2017-Aug-11 11:30N 50°53' W 001°24'0 0.0
2017-Aug-11 11:01N 50°53' W 001°24'0 0.0
2017-Aug-11 10:31N 50°53' W 001°24'0 0.0
2017-Aug-11 10:00N 50°53' W 001°24'0 0.0
2017-Aug-11 09:30N 50°53' W 001°24'0 0.0
2017-Aug-11 09:00N 50°53' W 001°24'0 0.0
2017-Aug-11 08:30N 50°53' W 001°24'0 0.0
2017-Aug-11 08:00N 50°53' W 001°24'0 0.0
2017-Aug-11 07:30N 50°53' W 001°24'0 0.0
2017-Aug-11 07:00N 50°53' W 001°24'0 0.0
2017-Aug-11 06:30N 50°53' W 001°24'0 0.0
2017-Aug-11 06:00N 50°53' W 001°24'0 0.0
2017-Aug-11 05:30N 50°53' W 001°24'0 0.5
2017-Aug-11 05:00N 50°53' W 001°24'4 8.4
2017-Aug-11 04:30N 50°50' W 001°19'4 8.2
2017-Aug-11 04:00N 50°47' W 001°17'917.1
2017-Aug-11 03:30N 50°44' W 001°04'612.0
2017-Aug-11 03:00N 50°39' W 000°58'510.7
2017-Aug-11 02:30N 50°34' W 001°01'611.7
2017-Aug-11 02:01N 50°31' W 001°08'612.6
2017-Aug-11 01:30N 50°28' W 001°17'713.6
2017-Aug-11 01:01N 50°25' W 001°27'714.5
2017-Aug-11 00:30N 50°22' W 001°37'815.3
2017-Aug-11 00:01N 50°21' W 001°49'816.0
2017-Aug-10 23:30N 50°18' W 002°01'714.4
2017-Aug-10 23:00N 50°13' W 002°09'1013.9
2017-Aug-10 22:18N 50°04' W 002°10'413.6
2017-Aug-10 21:59N 49°59' W 002°09'612.8
2017-Aug-10 21:31N 49°54' W 002°06'612.7
2017-Aug-10 21:00N 49°47' W 002°03'917.9
2017-Aug-10 20:31N 49°39' W 002°07'815.7
2017-Aug-10 19:59N 49°31' W 002°10'714.6
2017-Aug-10 19:31N 49°24' W 002°14'714.6
2017-Aug-10 19:00N 49°23' W 002°25'6 9.9
2017-Aug-10 18:26N 49°27' W 002°30'0 0.1
2017-Aug-10 17:11N 49°27' W 002°30'0 0.0
2017-Aug-10 16:53N 49°27' W 002°30'0 0.0
2017-Aug-10 16:29N 49°27' W 002°30'0 0.0
2017-Aug-10 15:53N 49°27' W 002°30'30 2.6
2017-Aug-10 04:04N 49°13' W 003°11'120.7
2017-Aug-10 04:00N 49°13' W 003°13'4619.8
2017-Aug-10 01:41N 48°57' W 004°19'318.7
2017-Aug-10 01:30N 48°56' W 004°24'918.3
2017-Aug-10 01:00N 48°52' W 004°37'918.2
2017-Aug-10 00:30N 48°49' W 004°50'917.7
2017-Aug-10 00:00N 48°45' W 005°02'816.5
2017-Aug-09 23:30N 48°40' W 005°12'816.0
2017-Aug-09 23:00N 48°34' W 005°19'4242.7
2017-Aug-09 23:00N 48°30' W 005°18'714.7 350 / 321024.710.8 16.311.916.4
2017-Aug-09 22:30N 48°27' W 005°28'1017.6
2017-Aug-09 21:57N 48°19' W 005°36'2217.0
2017-Aug-09 20:38N 47°59' W 005°52'19117.9
2017-Aug-09 10:00N 45°12' W 008°06'336 9.8 330 / 291023.110.8 18.412.118.9
2017-Aug-07 23:31N 39°43' W 009°41'215.6
2017-Aug-07 23:24N 39°42' W 009°43'615.5
2017-Aug-07 23:00N 39°36' W 009°44'815.7
2017-Aug-07 22:29N 39°27' W 009°44'715.3
2017-Aug-07 22:00N 39°20' W 009°44'815.3
2017-Aug-07 21:30N 39°13' W 009°44'815.4
2017-Aug-07 21:00N 39°05' W 009°43'815.0
2017-Aug-07 20:30N 38°57' W 009°43'714.6
2017-Aug-07 20:00N 38°50' W 009°43'714.1
2017-Aug-07 19:30N 38°43' W 009°43'612.7
2017-Aug-07 19:00N 38°39' W 009°37'715.0
2017-Aug-07 18:31N 38°37' W 009°28'714.4
2017-Aug-07 18:00N 38°39' W 009°20'714.2
2017-Aug-07 17:30N 38°41' W 009°11'3 5.5
2017-Aug-07 16:57N 38°43' W 009°07'0 0.0
2017-Aug-07 16:27N 38°43' W 009°07'0 0.0
2017-Aug-07 15:57N 38°43' W 009°07'0 0.0
2017-Aug-07 15:21N 38°43' W 009°07'0 0.0
2017-Aug-07 14:51N 38°43' W 009°07'0 0.0
2017-Aug-07 14:27N 38°43' W 009°07'0 0.0
2017-Aug-07 13:57N 38°43' W 009°07'0 0.0
2017-Aug-07 13:27N 38°43' W 009°07'0 0.0
2017-Aug-07 12:57N 38°43' W 009°07'0 0.0
2017-Aug-07 12:27N 38°43' W 009°07'0 0.0
2017-Aug-07 11:57N 38°43' W 009°07'0 0.0
2017-Aug-07 11:27N 38°43' W 009°07'0 0.0
2017-Aug-07 10:57N 38°43' W 009°07'0 0.0
2017-Aug-07 10:27N 38°43' W 009°07'0 0.0
2017-Aug-07 09:57N 38°43' W 009°07'0 0.0
2017-Aug-07 09:27N 38°43' W 009°07'0 0.0
2017-Aug-07 08:57N 38°43' W 009°07'0 0.0
2017-Aug-07 08:27N 38°43' W 009°07'0 0.0
2017-Aug-07 07:57N 38°43' W 009°07'0 0.0
2017-Aug-07 07:27N 38°43' W 009°07'0 0.0
2017-Aug-07 06:57N 38°43' W 009°07'0 0.0
2017-Aug-07 06:27N 38°43' W 009°07'0 0.6
2017-Aug-07 06:00N 38°42' W 009°08'5 9.4
2017-Aug-07 05:30N 38°41' W 009°13'510.0
2017-Aug-07 05:00N 38°39' W 009°19'714.5
2017-Aug-07 04:30N 38°35' W 009°27'816.2
2017-Aug-07 04:00N 38°37' W 009°37'815.7
2017-Aug-07 03:31N 38°44' W 009°42'918.0
2017-Aug-07 03:01N 38°53' W 009°42'918.0
2017-Aug-07 02:31N 39°02' W 009°43'917.8
2017-Aug-07 02:00N 39°11' W 009°45'917.9
2017-Aug-07 01:31N 39°20' W 009°46'918.4
2017-Aug-07 01:01N 39°29' W 009°47'918.2
2017-Aug-07 00:30N 39°38' W 009°45'918.0
2017-Aug-07 00:00N 39°47' W 009°44'918.0
2017-Aug-06 23:30N 39°56' W 009°41'918.1
2017-Aug-06 23:00N 40°05' W 009°39'  

Dump ship's entire track history